Time;durP1;ratioP1;P1;durP2;ratioP2;P2;SDS_P1;SDS_P2;PMS_P1;PMS_P2;Temp;Humidity;BMP_temperature;BMP_pressure;BME280_temperature;BME280_humidity;BME280_pressure;Samples;Min_cycle;Max_cycle;Signal;HPM_P1;HPM_P2
2021/01/19 00:01:09;;;;;;;41.55;13.73;;;5.10;99.90;;;;;;5082479;28;20126;-70
2021/01/19 00:03:35;;;;;;;51.47;15.10;;;5.10;99.90;;;;;;5079375;28;20040;-70
2021/01/19 00:06:01;;;;;;;36.95;12.77;;;5.20;99.90;;;;;;5083112;28;20127;-70
2021/01/19 00:08:27;;;;;;;38.10;14.35;;;5.10;99.90;;;;;;5075555;28;20166;-71
2021/01/19 00:10:52;;;;;;;38.00;15.15;;;5.10;99.90;;;;;;5068791;28;20122;-70
2021/01/19 00:13:21;;;;;;;45.67;16.80;;;5.10;99.90;;;;;;5077093;28;20500;-70
2021/01/19 00:15:47;;;;;;;44.08;17.15;;;5.10;99.90;;;;;;5066134;28;20058;-71
2021/01/19 00:18:13;;;;;;;33.47;17.67;;;5.10;99.90;;;;;;5082998;28;20111;-71
2021/01/19 00:20:40;;;;;;;42.10;20.70;;;5.10;99.90;;;;;;5082483;28;20040;-69
2021/01/19 00:23:05;;;;;;;48.35;21.95;;;5.00;99.90;;;;;;5081074;28;20048;-70
2021/01/19 00:25:31;;;;;;;49.33;27.58;;;5.00;99.90;;;;;;5062817;28;20410;-73
2021/01/19 00:27:56;;;;;;;45.60;23.10;;;5.00;99.90;;;;;;5081469;28;20409;-70
2021/01/19 00:30:22;;;;;;;43.00;21.27;;;5.00;99.90;;;;;;5082616;28;20056;-71
2021/01/19 00:32:48;;;;;;;45.10;22.45;;;5.00;99.90;;;;;;5080932;28;20503;-70
2021/01/19 00:35:14;;;;;;;46.10;28.15;;;5.10;99.90;;;;;;5081553;28;20051;-70
2021/01/19 00:37:40;;;;;;;56.25;29.58;;;5.10;99.90;;;;;;5082354;28;20066;-70
2021/01/19 00:40:06;;;;;;;48.88;28.42;;;5.10;99.90;;;;;;5082011;28;20040;-70
2021/01/19 00:42:32;;;;;;;50.50;27.27;;;5.10;99.90;;;;;;5081449;28;20451;-69
2021/01/19 00:44:57;;;;;;;48.63;28.98;;;5.00;99.90;;;;;;5062679;28;20044;-71
2021/01/19 00:47:24;;;;;;;48.50;29.92;;;5.10;99.90;;;;;;5082193;28;20083;-70
2021/01/19 00:49:49;;;;;;;50.38;34.58;;;5.00;99.90;;;;;;5083576;28;20479;-70
2021/01/19 00:52:15;;;;;;;55.47;37.05;;;5.00;99.90;;;;;;5086103;28;20127;-70
2021/01/19 00:54:40;;;;;;;67.68;41.17;;;5.10;99.90;;;;;;5071008;28;20290;-71
2021/01/19 00:57:09;;;;;;;72.03;45.72;;;5.00;99.90;;;;;;5085004;28;20139;-71
2021/01/19 00:59:35;;;;;;;72.97;43.22;;;5.00;99.90;;;;;;5084545;28;20050;-69
2021/01/19 01:02:00;;;;;;;83.63;52.80;;;5.00;99.90;;;;;;5085856;28;20032;-69
2021/01/19 01:04:26;;;;;;;82.22;49.25;;;5.00;99.90;;;;;;5086422;28;20036;-71
2021/01/19 01:06:53;;;;;;;93.63;55.75;;;5.00;99.90;;;;;;5085671;28;20075;-71
2021/01/19 01:09:19;;;;;;;108.13;62.80;;;5.00;99.90;;;;;;5085975;28;20051;-70
2021/01/19 01:11:44;;;;;;;94.38;55.75;;;5.10;99.90;;;;;;5083275;28;20374;-70
2021/01/19 01:14:12;;;;;;;109.25;65.10;;;5.10;99.90;;;;;;5085128;28;20048;-71
2021/01/19 01:16:38;;;;;;;98.20;64.97;;;5.10;99.90;;;;;;5082755;28;20403;-70
2021/01/19 01:19:08;;;;;;;86.82;53.10;;;5.10;99.90;;;;;;5065633;28;20528;-70
2021/01/19 01:21:38;;;;;;;79.85;47.78;;;5.10;99.90;;;;;;5081328;28;20051;-70
2021/01/19 01:24:06;;;;;;;112.55;69.60;;;5.10;99.90;;;;;;5085224;28;20044;-70
2021/01/19 01:26:31;;;;;;;126.43;71.03;;;5.10;99.90;;;;;;5085268;28;20381;-69
2021/01/19 01:28:57;;;;;;;128.02;67.40;;;5.10;99.90;;;;;;5083950;28;20036;-70
2021/01/19 01:31:23;;;;;;;115.10;65.70;;;5.10;99.90;;;;;;5084575;28;20554;-70
2021/01/19 01:33:49;;;;;;;118.90;64.05;;;5.10;99.90;;;;;;5067661;28;20076;-70
2021/01/19 01:36:15;;;;;;;107.78;53.15;;;5.20;99.90;;;;;;5081020;28;20460;-70
2021/01/19 01:38:41;;;;;;;120.60;68.32;;;5.20;99.90;;;;;;5084001;28;20048;-70
2021/01/19 01:41:18;;;;;;;130.93;68.05;;;5.20;99.90;;;;;;5083042;28;20354;-71
2021/01/19 01:43:45;;;;;;;125.32;67.95;;;5.20;99.90;;;;;;5084472;28;20131;-71
2021/01/19 01:46:12;;;;;;;102.45;61.13;;;5.30;99.90;;;;;;5085353;28;20046;-70
2021/01/19 01:48:42;;;;;;;82.90;49.88;;;5.30;99.90;;;;;;5082167;28;20740;-70
2021/01/19 01:51:09;;;;;;;86.15;51.67;;;5.30;99.90;;;;;;5084783;28;20044;-70
2021/01/19 01:53:36;;;;;;;84.30;53.63;;;5.40;99.90;;;;;;5084418;28;20036;-70
2021/01/19 01:56:02;;;;;;;82.93;46.15;;;5.50;99.90;;;;;;5084509;28;20650;-70
2021/01/19 01:58:27;;;;;;;70.53;47.92;;;5.50;99.90;;;;;;5082683;28;20382;-70
2021/01/19 02:00:54;;;;;;;76.72;48.75;;;5.60;99.90;;;;;;5085701;28;20504;-70
2021/01/19 02:03:20;;;;;;;58.00;39.90;;;5.60;99.90;;;;;;5081430;28;20392;-69
2021/01/19 02:05:45;;;;;;;67.85;45.55;;;5.60;99.90;;;;;;5085303;28;20115;-69
2021/01/19 02:08:41;;;;;;;57.75;40.65;;;5.60;99.90;;;;;;5082417;28;20052;-71
2021/01/19 02:11:29;;;;;;;64.03;38.83;;;5.60;99.90;;;;;;5080084;28;20409;-70
2021/01/19 02:14:26;;;;;;;45.15;33.38;;;5.60;99.90;;;;;;5082681;28;20043;-71
2021/01/19 02:17:23;;;;;;;45.50;34.28;;;5.50;99.90;;;;;;5085555;28;20052;-70
2021/01/19 02:20:27;;;;;;;51.85;35.15;;;5.50;99.90;;;;;;5065329;28;20044;-71
2021/01/19 02:23:08;;;;;;;;;;;5.50;99.90;;;;;;5072276;28;20480;-71
2021/01/19 02:26:09;;;;;;;38.78;26.10;;;5.50;99.90;;;;;;5084129;28;19945;-71
2021/01/19 02:28:42;;;;;;;43.70;25.08;;;5.50;99.90;;;;;;5083031;28;20040;-70
2021/01/19 02:32:01;;;;;;;39.08;24.75;;;5.40;99.90;;;;;;5074846;28;20078;-71
2021/01/19 02:34:43;;;;;;;38.97;23.42;;;5.30;99.90;;;;;;5041767;28;20044;-71
2021/01/19 02:37:26;;;;;;;38.42;24.13;;;5.30;99.90;;;;;;5075819;28;20178;-70
2021/01/19 02:40:04;;;;;;;;;;;5.30;99.90;;;;;;5085309;28;20051;-69
2021/01/19 02:42:54;;;;;;;34.10;22.80;;;5.30;99.90;;;;;;5064740;28;19920;-69
2021/01/19 02:45:20;;;;;;;33.42;21.67;;;5.20;99.90;;;;;;5069411;28;20327;-69
2021/01/19 02:47:46;;;;;;;37.38;22.40;;;5.20;99.90;;;;;;5083889;28;20079;-70
2021/01/19 02:50:12;;;;;;;34.80;22.17;;;5.20;99.90;;;;;;5083008;28;20043;-70
2021/01/19 02:52:39;;;;;;;32.17;20.98;;;5.20;99.90;;;;;;5084373;28;20123;-71
2021/01/19 02:55:06;;;;;;;28.08;16.92;;;5.20;99.90;;;;;;5083660;28;20040;-72
2021/01/19 02:57:50;;;;;;;36.95;19.83;;;5.10;99.90;;;;;;5080340;28;20544;-71
2021/01/19 03:00:22;;;;;;;27.52;18.65;;;5.10;99.90;;;;;;5083227;28;20048;-70
2021/01/19 03:02:49;;;;;;;27.30;16.63;;;5.10;99.90;;;;;;5083429;28;20051;-69
2021/01/19 03:05:16;;;;;;;24.98;16.15;;;5.00;99.90;;;;;;5064870;28;20301;-72
2021/01/19 03:07:43;;;;;;;29.17;17.67;;;5.00;99.90;;;;;;5080229;28;20080;-72
2021/01/19 03:10:11;;;;;;;29.17;16.33;;;5.00;99.90;;;;;;5082410;28;20048;-70
2021/01/19 03:12:41;;;;;;;28.85;14.30;;;5.00;99.90;;;;;;5081543;28;20093;-70
2021/01/19 03:15:08;;;;;;;29.40;16.90;;;5.00;99.90;;;;;;5083846;28;20055;-70
2021/01/19 03:17:34;;;;;;;24.58;16.27;;;5.00;99.90;;;;;;5082811;28;20044;-71
2021/01/19 03:19:59;;;;;;;23.17;16.45;;;4.90;99.90;;;;;;5083080;28;20444;-71
2021/01/19 03:22:25;;;;;;;31.55;15.95;;;4.90;99.90;;;;;;5083619;28;20461;-71
2021/01/19 03:24:51;;;;;;;29.13;14.27;;;4.90;99.90;;;;;;5083898;28;20048;-70
2021/01/19 03:27:16;;;;;;;23.45;16.15;;;4.90;99.90;;;;;;5080499;28;20404;-71
2021/01/19 03:29:42;;;;;;;23.85;14.25;;;4.90;99.90;;;;;;5083100;28;20076;-71
2021/01/19 03:32:07;;;;;;;27.63;19.55;;;4.90;99.90;;;;;;5082352;28;20067;-71
2021/01/19 03:34:34;;;;;;;28.17;17.38;;;4.90;99.90;;;;;;5083396;28;20066;-71
2021/01/19 03:37:00;;;;;;;26.65;16.52;;;4.90;99.90;;;;;;5073458;28;20044;-71
2021/01/19 03:39:26;;;;;;;23.83;15.13;;;4.90;99.90;;;;;;5083014;28;20054;-69
2021/01/19 03:41:52;;;;;;;23.23;16.85;;;4.90;99.90;;;;;;5073888;28;20044;-71
2021/01/19 03:44:17;;;;;;;23.48;15.73;;;4.90;99.90;;;;;;5061912;28;20214;-72
2021/01/19 03:46:43;;;;;;;28.67;17.65;;;4.90;99.90;;;;;;5069430;28;20341;-72
2021/01/19 03:49:09;;;;;;;25.48;17.60;;;4.90;99.90;;;;;;5083040;28;20399;-71
2021/01/19 03:51:34;;;;;;;27.98;16.95;;;4.90;99.90;;;;;;5077461;28;20047;-72
2021/01/19 03:54:00;;;;;;;24.27;17.02;;;4.90;99.90;;;;;;5062590;28;20127;-71
2021/01/19 03:56:26;;;;;;;19.52;14.75;;;4.90;99.90;;;;;;5071998;28;20035;-72
2021/01/19 03:58:51;;;;;;;18.15;15.13;;;4.90;99.90;;;;;;5082550;28;20147;-72
2021/01/19 04:01:17;;;;;;;24.63;14.98;;;4.90;99.90;;;;;;5080949;28;20507;-72
2021/01/19 04:03:43;;;;;;;26.58;16.40;;;4.90;99.90;;;;;;5082123;28;20047;-72
2021/01/19 04:06:09;;;;;;;25.88;16.02;;;4.90;99.90;;;;;;5082661;28;20040;-72
2021/01/19 04:08:36;;;;;;;19.10;12.77;;;4.90;99.90;;;;;;5082798;28;20048;-71
2021/01/19 04:11:03;;;;;;;22.33;14.57;;;4.90;99.90;;;;;;5082164;28;20594;-70
2021/01/19 04:13:29;;;;;;;16.08;13.07;;;5.00;99.90;;;;;;5082126;28;20507;-70
2021/01/19 04:15:55;;;;;;;27.17;14.73;;;5.00;99.90;;;;;;5082492;28;20363;-70
2021/01/19 04:18:21;;;;;;;16.55;11.70;;;4.90;99.90;;;;;;5080918;28;20502;-70
2021/01/19 04:20:47;;;;;;;19.58;11.73;;;4.90;99.90;;;;;;5076933;28;20040;-70
2021/01/19 04:23:14;;;;;;;18.70;13.57;;;5.00;99.90;;;;;;5082770;28;20491;-71
2021/01/19 04:25:43;;;;;;;21.35;12.63;;;5.00;99.90;;;;;;5082058;28;20050;-71
2021/01/19 04:28:10;;;;;;;26.63;14.90;;;5.00;99.90;;;;;;5081013;28;20300;-71
2021/01/19 04:30:36;;;;;;;19.05;14.73;;;4.90;99.90;;;;;;5082059;28;20122;-71
2021/01/19 04:33:02;;;;;;;21.00;13.38;;;4.90;99.90;;;;;;5082748;28;20040;-72
2021/01/19 04:35:28;;;;;;;20.45;13.32;;;4.90;99.90;;;;;;5080208;28;20105;-70
2021/01/19 04:37:54;;;;;;;19.30;12.13;;;5.00;99.90;;;;;;5062883;28;20041;-70
2021/01/19 04:40:19;;;;;;;16.33;13.40;;;5.00;99.90;;;;;;5071372;28;20477;-71
2021/01/19 04:42:45;;;;;;;16.23;12.63;;;4.90;99.90;;;;;;5081456;28;20052;-71
2021/01/19 04:45:11;;;;;;;19.85;13.80;;;5.00;99.90;;;;;;5081036;28;20044;-71
2021/01/19 04:47:38;;;;;;;16.10;12.65;;;5.00;99.90;;;;;;5080727;28;20048;-71
2021/01/19 04:50:09;;;;;;;19.70;13.77;;;4.90;99.90;;;;;;5074548;28;20101;-70
2021/01/19 04:52:41;;;;;;;15.93;11.80;;;5.00;99.90;;;;;;5081468;28;20044;-71
2021/01/19 04:55:23;;;;;;;16.02;10.57;;;5.00;99.90;;;;;;5081443;28;20139;-71
2021/01/19 04:57:56;;;;;;;12.93;11.60;;;5.00;99.90;;;;;;5080394;28;20113;-72
2021/01/19 05:00:36;;;;;;;15.77;11.85;;;5.00;99.90;;;;;;5081658;28;20044;-71
2021/01/19 05:03:02;;;;;;;16.33;13.60;;;5.00;99.90;;;;;;5082287;28;20036;-72
2021/01/19 05:05:36;;;;;;;14.27;11.23;;;5.00;99.90;;;;;;5080453;28;20046;-71
2021/01/19 05:08:02;;;;;;;13.75;11.00;;;4.90;99.90;;;;;;5062443;28;20131;-71
2021/01/19 05:10:35;;;;;;;14.90;13.40;;;5.00;99.90;;;;;;5073197;28;20161;-72
2021/01/19 05:13:11;;;;;;;16.05;13.02;;;5.00;99.90;;;;;;5081015;28;20087;-72
2021/01/19 05:15:47;;;;;;;15.77;11.10;;;5.00;99.90;;;;;;5080899;28;20032;-71
2021/01/19 05:18:16;;;;;;;14.85;12.50;;;5.00;99.90;;;;;;5061077;28;20082;-71
2021/01/19 05:20:50;;;;;;;13.43;11.13;;;5.00;99.90;;;;;;5077753;28;20040;-72
2021/01/19 05:23:21;;;;;;;15.30;13.80;;;5.00;99.90;;;;;;5062111;28;20056;-72
2021/01/19 05:25:58;;;;;;;17.05;13.35;;;5.00;99.90;;;;;;5077515;28;20074;-72
2021/01/19 05:28:35;;;;;;;17.25;14.90;;;5.00;99.90;;;;;;5081117;28;20300;-73
2021/01/19 05:31:04;;;;;;;17.15;14.00;;;5.00;99.90;;;;;;5081341;28;20051;-73
2021/01/19 05:33:30;;;;;;;17.27;15.00;;;4.90;99.90;;;;;;5084564;28;20044;-72
2021/01/19 05:36:07;;;;;;;15.73;12.25;;;5.00;99.90;;;;;;5084842;28;20093;-73
2021/01/19 05:38:46;;;;;;;17.58;14.00;;;5.00;99.90;;;;;;5085027;28;20133;-71
2021/01/19 05:41:32;;;;;;;19.55;17.42;;;5.00;99.90;;;;;;5084661;28;20055;-73
2021/01/19 05:44:18;;;;;;;16.17;13.90;;;4.90;99.90;;;;;;5084097;28;20040;-71
2021/01/19 05:46:50;;;;;;;17.40;15.68;;;5.00;99.90;;;;;;5084137;28;20067;-72
2021/01/19 05:49:23;;;;;;;16.15;14.20;;;5.00;99.90;;;;;;5085293;28;21034;-73
2021/01/19 05:51:54;;;;;;;18.67;16.10;;;5.00;99.90;;;;;;5075158;28;20114;-73
2021/01/19 05:54:34;;;;;;;16.23;13.25;;;5.10;99.90;;;;;;5073584;28;20519;-72
2021/01/19 05:57:05;;;;;;;13.55;12.15;;;5.10;99.90;;;;;;5083790;28;20074;-73
2021/01/19 05:59:33;;;;;;;16.73;15.00;;;5.10;99.90;;;;;;5084628;28;20563;-72
2021/01/19 06:02:02;;;;;;;17.15;15.45;;;5.10;99.90;;;;;;5074830;28;20045;-72
2021/01/19 06:04:36;;;;;;;17.15;14.27;;;5.10;99.90;;;;;;5074687;28;20051;-71
2021/01/19 06:07:03;;;;;;;16.83;14.80;;;5.20;99.90;;;;;;5083818;28;20040;-71
2021/01/19 06:09:29;;;;;;;16.60;14.95;;;5.20;99.90;;;;;;5084306;28;20044;-71
2021/01/19 06:11:56;;;;;;;17.92;16.15;;;5.20;99.90;;;;;;5075524;28;20101;-71
2021/01/19 06:14:27;;;;;;;19.58;15.27;;;5.20;99.90;;;;;;5075723;28;20043;-71
2021/01/19 06:17:16;;;;;;;22.27;19.90;;;5.20;99.90;;;;;;5080030;28;20477;-71
2021/01/19 06:19:43;;;;;;;17.88;16.05;;;5.20;99.90;;;;;;5078058;28;20074;-71
2021/01/19 06:22:23;;;;;;;17.98;16.23;;;5.30;99.90;;;;;;5084322;28;20432;-74
2021/01/19 06:24:53;;;;;;;20.25;18.45;;;5.30;99.90;;;;;;5084528;28;20074;-71
2021/01/19 06:27:24;;;;;;;18.55;16.88;;;5.30;99.90;;;;;;5082340;28;20048;-73
2021/01/19 06:30:01;;;;;;;21.15;17.92;;;5.30;99.90;;;;;;5084211;28;20124;-73
2021/01/19 06:32:28;;;;;;;20.67;18.60;;;5.30;99.90;;;;;;5079043;28;20156;-72
2021/01/19 06:34:54;;;;;;;16.92;15.15;;;5.30;99.90;;;;;;5082632;28;20959;-71
2021/01/19 06:37:24;;;;;;;19.02;17.20;;;5.30;99.90;;;;;;5084431;28;20093;-71
2021/01/19 06:39:55;;;;;;;20.25;18.35;;;5.30;99.90;;;;;;5084281;28;20685;-71
2021/01/19 06:42:26;;;;;;;16.73;15.15;;;5.30;99.90;;;;;;5071544;28;20092;-71
2021/01/19 06:44:56;;;;;;;22.38;19.95;;;5.40;99.90;;;;;;5081426;28;20230;-71
2021/01/19 06:47:22;;;;;;;16.25;14.65;;;5.40;99.90;;;;;;5082980;28;20048;-71
2021/01/19 06:49:50;;;;;;;20.85;19.08;;;5.40;99.90;;;;;;5083601;28;20135;-71
2021/01/19 06:52:16;;;;;;;16.92;15.32;;;5.40;99.90;;;;;;5083563;28;20033;-71
2021/01/19 06:54:54;;;;;;;17.20;15.55;;;5.40;99.90;;;;;;5083370;28;20044;-72
2021/01/19 06:57:45;;;;;;;16.52;14.98;;;5.40;99.90;;;;;;5081727;28;20032;-72
2021/01/19 07:00:19;;;;;;;20.35;18.25;;;5.40;99.90;;;;;;5083130;28;20044;-71
2021/01/19 07:02:55;;;;;;;21.00;18.85;;;5.40;99.90;;;;;;5083409;28;20047;-72
2021/01/19 07:05:22;;;;;;;21.13;18.98;;;5.40;99.90;;;;;;5083734;28;20044;-72
2021/01/19 07:08:07;;;;;;;18.58;15.90;;;5.40;99.90;;;;;;5082520;28;20040;-72
2021/01/19 07:10:48;;;;;;;21.73;19.52;;;5.40;99.90;;;;;;5083530;28;20113;-71
2021/01/19 07:13:24;;;;;;;25.58;23.20;;;5.40;99.90;;;;;;5075572;28;20389;-72
2021/01/19 07:16:06;;;;;;;22.85;20.55;;;5.40;99.90;;;;;;5076237;28;20059;-72
2021/01/19 07:18:50;;;;;;;22.80;20.67;;;5.40;99.90;;;;;;5072316;28;20142;-73
2021/01/19 07:21:20;;;;;;;24.27;22.08;;;5.40;99.90;;;;;;5084880;28;20047;-70
2021/01/19 07:23:48;;;;;;;18.25;16.45;;;5.40;99.90;;;;;;5070766;28;20105;-71
2021/01/19 07:26:18;;;;;;;22.33;20.23;;;5.50;99.90;;;;;;5080199;28;20046;-71
2021/01/19 07:28:45;;;;;;;22.10;19.83;;;5.50;99.90;;;;;;5078681;28;20413;-72
2021/01/19 07:31:11;;;;;;;22.10;19.77;;;5.50;99.90;;;;;;5080390;28;20119;-73
2021/01/19 07:33:41;;;;;;;19.38;17.27;;;5.50;99.90;;;;;;5083144;28;20051;-72
2021/01/19 07:36:12;;;;;;;22.00;19.70;;;5.50;99.90;;;;;;5081967;28;20050;-72
2021/01/19 07:38:38;;;;;;;22.40;20.40;;;5.50;99.90;;;;;;5080155;28;20089;-72
2021/01/19 07:41:03;;;;;;;25.63;23.17;;;5.60;99.90;;;;;;5079455;28;20044;-72
2021/01/19 07:43:35;;;;;;;21.23;19.05;;;5.60;99.90;;;;;;5081212;28;20040;-72
2021/01/19 07:46:00;;;;;;;21.00;18.88;;;5.60;99.90;;;;;;5080750;28;20469;-72
2021/01/19 07:48:36;;;;;;;25.42;22.77;;;5.60;99.90;;;;;;5080274;28;20052;-72
2021/01/19 07:51:15;;;;;;;21.33;19.17;;;5.60;99.90;;;;;;5081941;28;20517;-72
2021/01/19 07:53:54;;;;;;;20.10;18.15;;;5.60;99.90;;;;;;5083171;28;20338;-73
2021/01/19 07:56:28;;;;;;;20.98;18.77;;;5.70;99.90;;;;;;5082120;28;20092;-72
2021/01/19 07:58:54;;;;;;;21.35;19.25;;;5.70;99.90;;;;;;5082001;28;20078;-72
2021/01/19 08:01:28;;;;;;;21.23;19.10;;;5.70;99.90;;;;;;5082636;28;20036;-71
2021/01/19 08:03:55;;;;;;;22.60;20.33;;;5.80;99.90;;;;;;5082486;28;20044;-71
2021/01/19 08:06:31;;;;;;;20.20;18.25;;;5.80;99.90;;;;;;5082335;28;20328;-72
2021/01/19 08:09:08;;;;;;;21.10;18.80;;;5.80;99.90;;;;;;5080548;28;20047;-71
2021/01/19 08:11:34;;;;;;;19.55;17.55;;;5.80;99.90;;;;;;5078114;28;20046;-71
2021/01/19 08:14:00;;;;;;;21.33;19.17;;;5.80;99.90;;;;;;5081626;28;20139;-73
2021/01/19 08:16:27;;;;;;;22.40;20.13;;;5.80;99.90;;;;;;5081903;28;20039;-72
2021/01/19 08:19:13;;;;;;;21.77;19.65;;;5.80;99.90;;;;;;5081326;28;20634;-72
2021/01/19 08:21:50;;;;;;;22.42;18.85;;;5.70;99.90;;;;;;5081402;28;20052;-72
2021/01/19 08:24:22;;;;;;;26.92;22.48;;;5.70;99.90;;;;;;5080117;28;20564;-72
2021/01/19 08:26:48;;;;;;;25.70;22.70;;;5.70;99.90;;;;;;5079645;28;20091;-72
2021/01/19 08:29:18;;;;;;;21.48;19.25;;;5.70;99.90;;;;;;5081217;28;20036;-70
2021/01/19 08:32:00;;;;;;;26.08;23.30;;;5.70;99.90;;;;;;5081977;28;20131;-72
2021/01/19 08:34:27;;;;;;;25.02;22.50;;;5.60;99.90;;;;;;5080933;28;20078;-72
2021/01/19 08:36:55;;;;;;;27.15;24.23;;;5.60;99.90;;;;;;5079074;28;20047;-72
2021/01/19 08:39:21;;;;;;;22.80;20.30;;;5.70;99.90;;;;;;5079596;28;20461;-72
2021/01/19 08:41:49;;;;;;;30.13;25.98;;;5.60;99.90;;;;;;5078960;28;20070;-70
2021/01/19 08:44:16;;;;;;;29.50;22.52;;;5.60;99.90;;;;;;5080468;28;20047;-72
2021/01/19 08:46:43;;;;;;;32.03;23.70;;;5.60;99.90;;;;;;5081067;28;20044;-71
2021/01/19 08:49:12;;;;;;;25.73;21.63;;;5.60;99.90;;;;;;5080233;28;20051;-70
2021/01/19 08:51:42;;;;;;;32.75;27.95;;;5.60;99.90;;;;;;5081147;28;20036;-73
2021/01/19 08:54:10;;;;;;;36.38;24.42;;;5.60;99.90;;;;;;5080171;28;20072;-70
2021/01/19 08:56:41;;;;;;;32.25;23.88;;;5.70;99.90;;;;;;5080824;28;20542;-70
2021/01/19 08:59:10;;;;;;;30.50;23.75;;;5.70;99.90;;;;;;5081470;28;20040;-72
2021/01/19 09:01:47;;;;;;;30.10;25.73;;;5.70;99.90;;;;;;5088835;28;20748;-72
2021/01/19 09:04:24;;;;;;;33.47;22.52;;;5.70;99.90;;;;;;5079417;28;20040;-72
2021/01/19 09:06:51;;;;;;;29.67;22.77;;;5.80;99.90;;;;;;5081793;28;20076;-72
2021/01/19 09:09:23;;;;;;;28.08;21.58;;;5.80;99.90;;;;;;5084310;28;20085;-71
2021/01/19 09:11:52;;;;;;;30.75;24.02;;;5.80;99.90;;;;;;5090504;28;20047;-72
2021/01/19 09:14:24;;;;;;;25.65;22.98;;;5.80;99.90;;;;;;5084186;28;20261;-73
2021/01/19 09:16:50;;;;;;;25.83;22.05;;;5.90;99.90;;;;;;5084902;28;20048;-73
2021/01/19 09:19:16;;;;;;;26.90;21.45;;;5.90;99.90;;;;;;5074706;28;20040;-70
2021/01/19 09:21:41;;;;;;;30.30;23.38;;;5.90;99.90;;;;;;5085650;28;20116;-73
2021/01/19 09:24:14;;;;;;;25.92;20.35;;;5.90;99.90;;;;;;5085765;28;20608;-71
2021/01/19 09:26:57;;;;;;;30.85;25.10;;;6.00;99.90;;;;;;5084609;28;20070;-73
2021/01/19 09:29:24;;;;;;;30.80;22.02;;;5.90;99.90;;;;;;5084998;28;20048;-73
2021/01/19 09:31:50;;;;;;;36.53;23.70;;;6.10;99.90;;;;;;5084612;28;20051;-73
2021/01/19 09:34:19;;;;;;;32.33;22.30;;;6.20;99.90;;;;;;5084772;28;20378;-73
2021/01/19 09:36:46;;;;;;;31.35;21.67;;;6.20;99.90;;;;;;5085125;28;20133;-74
2021/01/19 09:39:12;;;;;;;33.30;22.13;;;6.30;99.90;;;;;;5085484;28;20434;-73
2021/01/19 09:41:42;;;;;;;32.05;22.58;;;6.30;99.90;;;;;;5083243;28;20320;-72
2021/01/19 09:44:11;;;;;;;35.28;21.48;;;6.40;99.90;;;;;;5083663;28;20551;-73
2021/01/19 09:46:38;;;;;;;37.10;23.92;;;6.50;99.90;;;;;;5084035;28;20044;-71
2021/01/19 09:49:04;;;;;;;39.38;21.25;;;6.50;99.90;;;;;;5084571;28;20058;-71
2021/01/19 09:51:30;;;;;;;41.15;20.40;;;6.50;99.90;;;;;;5083569;28;20044;-71
2021/01/19 09:53:57;;;;;;;36.67;21.65;;;6.60;99.90;;;;;;5084922;28;20051;-72
2021/01/19 09:56:23;;;;;;;32.92;20.48;;;6.60;99.90;;;;;;5083296;28;20044;-72
2021/01/19 09:59:00;;;;;;;48.92;23.20;;;6.70;99.90;;;;;;5083734;28;20051;-72
2021/01/19 10:01:27;;;;;;;52.55;22.42;;;6.70;99.90;;;;;;5082013;28;20044;-72
2021/01/19 10:03:53;;;;;;;61.65;22.83;;;6.80;99.90;;;;;;5080895;28;20152;-72
2021/01/19 10:06:20;;;;;;;58.83;22.98;;;6.80;99.90;;;;;;5048445;28;20497;-72
2021/01/19 10:08:50;;;;;;;44.67;20.17;;;6.90;99.90;;;;;;5063640;28;20048;-72
2021/01/19 10:11:33;;;;;;;54.95;21.33;;;6.90;99.90;;;;;;5055445;28;20492;-71
2021/01/19 10:14:12;;;;;;;48.97;18.95;;;7.00;99.90;;;;;;5057692;28;20052;-72
2021/01/19 10:16:48;;;;;;;58.92;19.90;;;7.10;99.90;;;;;;5056447;28;20081;-74
2021/01/19 10:19:20;;;;;;;69.13;18.50;;;7.10;99.90;;;;;;5052133;28;20128;-73
2021/01/19 10:22:17;;;;;;;87.43;20.15;;;7.20;99.90;;;;;;5053591;28;20044;-71
2021/01/19 10:24:48;;;;;;;64.70;17.27;;;7.30;99.90;;;;;;5046377;28;20070;-71
2021/01/19 10:27:18;;;;;;;68.85;14.85;;;7.40;99.90;;;;;;5053544;28;20664;-71
2021/01/19 10:29:45;;;;;;;68.72;14.20;;;7.40;99.90;;;;;;5051408;28;20966;-73
2021/01/19 10:32:16;;;;;;;55.30;13.98;;;7.50;99.90;;;;;;5046245;28;20459;-72
2021/01/19 10:34:54;;;;;;;53.30;12.23;;;7.60;99.90;;;;;;5057508;28;20041;-73
2021/01/19 10:37:20;;;;;;;46.10;10.63;;;7.70;99.90;;;;;;5061692;28;20507;-72
2021/01/19 10:39:51;;;;;;;46.25;10.70;;;7.70;99.90;;;;;;5061900;28;20048;-73
2021/01/19 10:42:31;;;;;;;33.38;8.52;;;7.80;99.90;;;;;;5057671;28;20043;-73
2021/01/19 10:44:59;;;;;;;52.47;8.90;;;7.90;99.90;;;;;;5050810;28;20040;-73
2021/01/19 10:47:26;;;;;;;41.47;6.95;;;7.90;99.90;;;;;;5061648;28;20564;-72
2021/01/19 10:49:52;;;;;;;35.47;7.30;;;8.00;99.90;;;;;;5059240;28;20048;-73
2021/01/19 10:52:18;;;;;;;40.40;6.95;;;8.00;99.90;;;;;;5052829;28;20068;-73
2021/01/19 10:54:43;;;;;;;43.00;6.20;;;8.10;99.90;;;;;;5059993;28;20087;-71
2021/01/19 10:57:09;;;;;;;39.05;6.85;;;8.10;99.90;;;;;;5059991;28;20040;-72
2021/01/19 10:59:36;;;;;;;37.13;6.68;;;8.20;99.90;;;;;;5061462;28;20052;-72
2021/01/19 11:02:02;;;;;;;28.10;4.70;;;8.30;99.90;;;;;;5054529;28;20044;-72
2021/01/19 11:04:28;;;;;;;31.15;5.18;;;8.30;99.90;;;;;;5040285;28;20072;-73
2021/01/19 11:06:54;;;;;;;21.15;4.50;;;8.30;99.90;;;;;;5048523;28;20746;-71
2021/01/19 11:09:20;;;;;;;27.50;4.00;;;8.40;99.90;;;;;;5055308;28;20497;-72
2021/01/19 11:11:45;;;;;;;26.02;5.15;;;8.40;99.90;;;;;;5051419;28;20588;-73
2021/01/19 11:14:11;;;;;;;36.75;4.07;;;8.40;99.90;;;;;;5041434;28;20064;-73
2021/01/19 11:16:39;;;;;;;30.80;3.90;;;8.40;99.90;;;;;;5056984;28;20387;-73
2021/01/19 11:19:10;;;;;;;23.70;5.15;;;8.40;99.90;;;;;;5055901;28;20094;-71
2021/01/19 11:21:37;;;;;;;28.15;5.20;;;8.40;99.90;;;;;;5059801;28;20045;-73
2021/01/19 11:24:04;;;;;;;28.10;4.50;;;8.40;99.90;;;;;;5057275;28;20392;-72
2021/01/19 11:26:31;;;;;;;23.00;3.90;;;8.50;99.90;;;;;;5056477;28;20542;-71
2021/01/19 11:28:57;;;;;;;23.58;3.58;;;8.50;99.90;;;;;;5048875;28;20046;-72
2021/01/19 11:31:24;;;;;;;21.23;3.83;;;8.40;99.90;;;;;;5055581;28;20095;-73
2021/01/19 11:33:51;;;;;;;26.00;3.55;;;8.40;99.90;;;;;;5061423;28;20477;-73
2021/01/19 11:36:28;;;;;;;26.65;4.68;;;8.40;99.90;;;;;;5047155;28;20044;-74
2021/01/19 11:38:54;;;;;;;21.38;4.63;;;8.40;99.90;;;;;;5051093;28;20048;-73
2021/01/19 11:41:22;;;;;;;28.88;4.30;;;8.50;99.90;;;;;;5050467;28;20075;-72
2021/01/19 11:43:49;;;;;;;29.92;4.32;;;8.40;99.90;;;;;;5060335;28;20045;-72
2021/01/19 11:46:33;;;;;;;24.98;5.93;;;8.50;99.90;;;;;;5077545;28;20059;-73
2021/01/19 11:49:01;;;;;;;28.88;3.95;;;8.50;99.90;;;;;;5048613;28;20293;-73
2021/01/19 11:51:29;;;;;;;27.85;5.05;;;8.50;99.90;;;;;;5051057;28;20084;-73
2021/01/19 11:53:57;;;;;;;17.17;3.42;;;8.50;99.90;;;;;;5053181;28;20374;-73
2021/01/19 11:56:38;;;;;;;20.23;3.13;;;8.50;99.90;;;;;;5059109;28;20540;-73
2021/01/19 11:59:08;;;;;;;13.02;2.38;;;8.50;99.90;;;;;;5041807;28;20045;-73
2021/01/19 12:01:34;;;;;;;24.75;4.63;;;8.50;99.90;;;;;;5045680;28;20072;-71
2021/01/19 12:04:00;;;;;;;30.73;3.10;;;8.50;99.90;;;;;;5041536;28;20045;-74
2021/01/19 12:06:26;;;;;;;24.50;4.10;;;8.50;99.90;;;;;;5060444;28;20181;-73
2021/01/19 12:08:52;;;;;;;19.88;3.13;;;8.40;99.90;;;;;;5062142;28;20127;-73
2021/01/19 12:11:18;;;;;;;19.10;3.88;;;8.50;99.90;;;;;;5044485;28;20279;-72
2021/01/19 12:13:45;;;;;;;18.40;3.30;;;8.50;99.90;;;;;;5045615;28;20048;-73
2021/01/19 12:16:11;;;;;;;28.83;4.03;;;8.40;99.90;;;;;;5058036;28;20222;-72
2021/01/19 12:18:39;;;;;;;27.05;4.90;;;8.40;99.90;;;;;;5061787;28;20039;-75
2021/01/19 12:21:08;;;;;;;9.10;2.60;;;8.40;99.90;;;;;;5055135;28;20040;-74
2021/01/19 12:23:34;;;;;;;17.40;3.22;;;8.40;99.90;;;;;;5058770;28;20044;-72
2021/01/19 12:25:59;;;;;;;26.30;4.03;;;8.40;99.90;;;;;;5056501;28;20103;-72
2021/01/19 12:28:26;;;;;;;16.08;3.78;;;8.40;99.90;;;;;;5056460;28;20135;-71
2021/01/19 12:30:53;;;;;;;17.45;4.57;;;8.30;99.90;;;;;;5045427;28;20850;-72
2021/01/19 12:33:20;;;;;;;16.83;3.83;;;8.20;99.90;;;;;;5058876;28;20148;-72
2021/01/19 12:35:47;;;;;;;12.68;3.03;;;8.20;99.90;;;;;;5042301;28;20459;-75
2021/01/19 12:38:13;;;;;;;26.50;4.22;;;8.20;99.90;;;;;;5041422;28;20332;-73
2021/01/19 12:40:38;;;;;;;20.65;4.20;;;8.20;99.90;;;;;;5042576;28;20045;-74
2021/01/19 12:43:04;;;;;;;30.13;4.65;;;8.20;99.90;;;;;;5043954;28;20037;-72
2021/01/19 12:45:30;;;;;;;20.80;4.15;;;8.20;99.90;;;;;;5059490;28;20118;-74
2021/01/19 12:47:56;;;;;;;21.45;5.32;;;8.20;99.90;;;;;;5065262;28;20497;-74
2021/01/19 12:50:21;;;;;;;29.85;4.88;;;8.20;99.90;;;;;;5062011;28;20044;-74
2021/01/19 12:52:47;;;;;;;33.40;4.80;;;8.20;99.90;;;;;;5056821;28;20029;-73